PWSweather.com
Personal Weather Stations
Station Observations
TENMILE2
Watts Bar Lake, Ten Mile, TN 37880

Watts Bar LakeTen Mile, TN 37880

Lat: 35.686, Lon: -84.7068

Elevation: 767

Station Type: Davis VP2

http://www.wattsbarweather.net

Latest ConditionsUpdated 12:31:49 PM EST Sunday, Nov 19, 2017
Currently Today's Max Today's Min Today's Average
Temperature 47.3°F8.5°C 49.1°F9.5°C 40.8°F4.9°C 43.7°F6.5°C
Dew Point 33.3°F0.7°C 40.9°F4.9°C 31.3°F-0.4°C 35.1°F1.7°C
Winds 3.0 mph WSW4.8 kmh WSW 4.7 mph WSW7.6 kmh WSW - 1.9 mph 3.1 kmh
Wind Gusts 6.3 mph10.1 kmh 15.0 mph24.1 kmh - -
Humidity 58% 83% 55% 72%
Pressure 30.16 in1021.3 mb 30.17 in1021.7 mb 29.91 in1012.9 mb -
Hour Temp Dew Point Humidity Winds Wind Gusts Pressure Precip Precip Rate Daily Precip Total
12:31 PM 47.3°F8.5°C 33.3°F0.7°C 58% 3.0 mph WSW4.8 kmh WSW 6.3 mph10.1 kmh 30.16 in1021.3 mb 0.00 in0.0 mm 0.00 in0.0 mm 0.00 in0.0 mm
12:26 PM 47.0°F8.3°C 31.7°F-0.2°C 55% 1.5 mph NW2.4 kmh NW 3.8 mph6.1 kmh 30.16 in1021.3 mb 0.00 in0.0 mm 0.00 in0.0 mm 0.00 in0.0 mm
12:21 PM 47.1°F8.4°C 32.3°F0.2°C 56% 1.3 mph WSW2.1 kmh WSW 4.0 mph6.4 kmh 30.16 in1021.3 mb 0.00 in0.0 mm 0.00 in0.0 mm 0.00 in0.0 mm
12:16 PM 47.3°F8.5°C 32.4°F0.2°C 56% 2.0 mph W3.2 kmh W 4.0 mph6.4 kmh 30.16 in1021.3 mb 0.00 in0.0 mm 0.00 in0.0 mm 0.00 in0.0 mm
12:11 PM 47.0°F8.3°C 33.0°F0.6°C 58% 2.0 mph SW3.2 kmh SW 5.0 mph8.0 kmh 30.16 in1021.3 mb 0.00 in0.0 mm 0.00 in0.0 mm 0.00 in0.0 mm
12:06 PM 47.4°F8.6°C 32.5°F0.3°C 56% 1.8 mph WSW2.9 kmh WSW 5.0 mph8.0 kmh 30.16 in1021.3 mb 0.00 in0.0 mm 0.00 in0.0 mm 0.00 in0.0 mm
12:01 PM 48.1°F8.9°C 32.7°F0.4°C 55% 2.4 mph SW3.9 kmh SW 6.3 mph10.1 kmh 30.16 in1021.3 mb 0.00 in0.0 mm 0.00 in0.0 mm 0.00 in0.0 mm
11:56 AM 48.5°F9.2°C 33.6°F0.9°C 56% 3.3 mph WSW5.3 kmh WSW 6.3 mph10.1 kmh 30.17 in1021.7 mb 0.00 in0.0 mm 0.00 in0.0 mm 0.00 in0.0 mm
11:51 AM 48.1°F8.9°C 33.2°F0.7°C 56% 1.6 mph W2.6 kmh W 6.3 mph10.1 kmh 30.17 in1021.7 mb 0.00 in0.0 mm 0.00 in0.0 mm 0.00 in0.0 mm
11:46 AM 48.0°F8.9°C 33.1°F0.6°C 56% 1.9 mph NW3.1 kmh NW 6.3 mph10.1 kmh 30.16 in1021.3 mb 0.00 in0.0 mm 0.00 in0.0 mm 0.00 in0.0 mm
11:41 AM 48.0°F8.9°C 34.0°F1.1°C 58% 2.6 mph SW4.2 kmh SW 6.3 mph10.1 kmh 30.16 in1021.3 mb 0.00 in0.0 mm 0.00 in0.0 mm 0.00 in0.0 mm
11:36 AM 48.7°F9.3°C 33.8°F1.0°C 56% 3.4 mph WSW5.5 kmh WSW 8.0 mph12.9 kmh 30.17 in1021.7 mb 0.00 in0.0 mm 0.00 in0.0 mm 0.00 in0.0 mm
11:31 AM 49.1°F9.5°C 34.1°F1.2°C 56% 1.4 mph W2.3 kmh W 8.0 mph12.9 kmh 30.17 in1021.7 mb 0.00 in0.0 mm 0.00 in0.0 mm 0.00 in0.0 mm
11:26 AM 48.7°F9.3°C 34.2°F1.2°C 57% 1.8 mph SSE2.9 kmh SSE 10.0 mph16.1 kmh 30.16 in1021.3 mb 0.00 in0.0 mm 0.00 in0.0 mm 0.00 in0.0 mm
11:21 AM 48.2°F9.0°C 34.2°F1.2°C 58% 1.7 mph WSW2.7 kmh WSW 10.0 mph16.1 kmh 30.16 in1021.3 mb 0.00 in0.0 mm 0.00 in0.0 mm 0.00 in0.0 mm
11:16 AM 47.9°F8.8°C 33.0°F0.6°C 56% 2.9 mph SW4.7 kmh SW 7.5 mph12.1 kmh 30.16 in1021.3 mb 0.00 in0.0 mm 0.00 in0.0 mm 0.00 in0.0 mm
11:11 AM 47.1°F8.4°C 34.0°F1.1°C 60% 1.7 mph W2.7 kmh W 4.0 mph6.4 kmh 30.16 in1021.3 mb 0.00 in0.0 mm 0.00 in0.0 mm 0.00 in0.0 mm
11:06 AM 46.3°F7.9°C 33.2°F0.7°C 60% 2.3 mph SW3.7 kmh SW 4.0 mph6.4 kmh 30.16 in1021.3 mb 0.00 in0.0 mm 0.00 in0.0 mm 0.00 in0.0 mm
11:01 AM 45.5°F7.5°C 33.3°F0.7°C 62% 1.5 mph WSW2.4 kmh WSW 5.0 mph8.0 kmh 30.16 in1021.3 mb 0.00 in0.0 mm 0.00 in0.0 mm 0.00 in0.0 mm
10:56 AM 45.2°F7.3°C 33.0°F0.6°C 62% 1.5 mph W2.4 kmh W 5.0 mph8.0 kmh 30.16 in1021.3 mb 0.00 in0.0 mm 0.00 in0.0 mm 0.00 in0.0 mm
10:51 AM 45.5°F7.5°C 33.3°F0.7°C 62% 2.0 mph SSW3.2 kmh SSW 5.0 mph8.0 kmh 30.16 in1021.3 mb 0.00 in0.0 mm 0.00 in0.0 mm 0.00 in0.0 mm
10:46 AM 45.4°F7.4°C 33.6°F0.9°C 63% 1.3 mph WSW2.1 kmh WSW 4.0 mph6.4 kmh 30.16 in1021.3 mb 0.00 in0.0 mm 0.00 in0.0 mm 0.00 in0.0 mm
10:41 AM 45.3°F7.4°C 32.3°F0.2°C 60% 1.8 mph WSW2.9 kmh WSW 5.0 mph8.0 kmh 30.16 in1021.3 mb 0.00 in0.0 mm 0.00 in0.0 mm 0.00 in0.0 mm
10:36 AM 45.1°F7.3°C 33.7°F0.9°C 64% 2.0 mph WSW3.2 kmh WSW 6.0 mph9.7 kmh 30.16 in1021.3 mb 0.00 in0.0 mm 0.00 in0.0 mm 0.00 in0.0 mm
10:31 AM 44.6°F7.0°C 32.9°F0.5°C 63% 1.9 mph SW3.1 kmh SW 6.0 mph9.7 kmh 30.16 in1021.3 mb 0.00 in0.0 mm 0.00 in0.0 mm 0.00 in0.0 mm
10:26 AM 44.4°F6.9°C 32.7°F0.4°C 63% 2.1 mph SSW3.4 kmh SSW 7.5 mph12.1 kmh 30.16 in1021.3 mb 0.00 in0.0 mm 0.00 in0.0 mm 0.00 in0.0 mm
10:21 AM 44.4°F6.9°C 32.3°F0.2°C 62% 2.6 mph NNW4.2 kmh NNW 7.5 mph12.1 kmh 30.15 in1021.0 mb 0.00 in0.0 mm 0.00 in0.0 mm 0.00 in0.0 mm
10:16 AM 44.2°F6.8°C 32.1°F0.1°C 62% 1.3 mph W2.1 kmh W 6.3 mph10.1 kmh 30.15 in1021.0 mb 0.00 in0.0 mm 0.00 in0.0 mm 0.00 in0.0 mm
10:11 AM 44.1°F6.7°C 32.4°F0.2°C 63% 3.0 mph NNW4.8 kmh NNW 6.3 mph10.1 kmh 30.15 in1021.0 mb 0.00 in0.0 mm 0.00 in0.0 mm 0.00 in0.0 mm
10:06 AM 44.1°F6.7°C 32.4°F0.2°C 63% 1.6 mph NE2.6 kmh NE 7.5 mph12.1 kmh 30.15 in1021.0 mb 0.00 in0.0 mm 0.00 in0.0 mm 0.00 in0.0 mm
10:01 AM 44.2°F6.8°C 31.7°F-0.2°C 61% 1.8 mph WSW2.9 kmh WSW 7.5 mph12.1 kmh 30.15 in1021.0 mb 0.00 in0.0 mm 0.00 in0.0 mm 0.00 in0.0 mm
09:56 AM 44.4°F6.9°C 33.1°F0.6°C 64% 1.3 mph E2.1 kmh E 6.0 mph9.7 kmh 30.14 in1020.7 mb 0.00 in0.0 mm 0.00 in0.0 mm 0.00 in0.0 mm
09:51 AM 44.0°F6.7°C 31.9°F-0.1°C 62% 2.3 mph N3.7 kmh N 7.5 mph12.1 kmh 30.14 in1020.7 mb 0.00 in0.0 mm 0.00 in0.0 mm 0.00 in0.0 mm
09:46 AM 43.9°F6.6°C 32.2°F0.1°C 63% 1.7 mph WSW2.7 kmh WSW 9.0 mph14.5 kmh 30.14 in1020.7 mb 0.00 in0.0 mm 0.00 in0.0 mm 0.00 in0.0 mm
09:41 AM 43.8°F6.6°C 32.9°F0.5°C 65% 2.0 mph SW3.2 kmh SW 9.0 mph14.5 kmh 30.14 in1020.7 mb 0.00 in0.0 mm 0.00 in0.0 mm 0.00 in0.0 mm
09:36 AM 43.5°F6.4°C 32.6°F0.3°C 65% 2.3 mph WSW3.7 kmh WSW 12.5 mph20.1 kmh 30.14 in1020.7 mb 0.00 in0.0 mm 0.00 in0.0 mm 0.00 in0.0 mm
09:31 AM 43.2°F6.2°C 32.3°F0.2°C 65% 1.7 mph NW2.7 kmh NW 12.5 mph20.1 kmh 30.14 in1020.7 mb 0.00 in0.0 mm 0.00 in0.0 mm 0.00 in0.0 mm
09:26 AM 42.9°F6.1°C 32.4°F0.2°C 66% 1.4 mph W2.3 kmh W 6.0 mph9.7 kmh 30.14 in1020.7 mb 0.00 in0.0 mm 0.00 in0.0 mm 0.00 in0.0 mm
09:21 AM 42.5°F5.8°C 32.8°F0.4°C 68% 1.4 mph WSW2.3 kmh WSW 7.5 mph12.1 kmh 30.13 in1020.3 mb 0.00 in0.0 mm 0.00 in0.0 mm 0.00 in0.0 mm
09:16 AM 42.4°F5.8°C 31.9°F-0.1°C 66% 2.4 mph WSW3.9 kmh WSW 7.5 mph12.1 kmh 30.13 in1020.3 mb 0.00 in0.0 mm 0.00 in0.0 mm 0.00 in0.0 mm
09:11 AM 42.4°F5.8°C 32.3°F0.2°C 67% 2.8 mph SW4.5 kmh SW 8.8 mph14.2 kmh 30.13 in1020.3 mb 0.00 in0.0 mm 0.00 in0.0 mm 0.00 in0.0 mm
09:06 AM 42.2°F5.7°C 31.7°F-0.2°C 66% 1.6 mph SW2.6 kmh SW 8.8 mph14.2 kmh 30.13 in1020.3 mb 0.00 in0.0 mm 0.00 in0.0 mm 0.00 in0.0 mm
09:01 AM 42.1°F5.6°C 32.0°F0.0°C 67% 1.7 mph W2.7 kmh W 6.0 mph9.7 kmh 30.13 in1020.3 mb 0.00 in0.0 mm 0.00 in0.0 mm 0.00 in0.0 mm
08:56 AM 41.9°F5.5°C 32.2°F0.1°C 68% 1.4 mph SW2.3 kmh SW 7.0 mph11.3 kmh 30.13 in1020.3 mb 0.00 in0.0 mm 0.00 in0.0 mm 0.00 in0.0 mm
08:51 AM 41.7°F5.4°C 31.3°F-0.4°C 66% 2.2 mph WSW3.5 kmh WSW 7.5 mph12.1 kmh 30.12 in1020.0 mb 0.00 in0.0 mm 0.00 in0.0 mm 0.00 in0.0 mm
08:46 AM 41.8°F5.4°C 32.1°F0.1°C 68% 2.1 mph NW3.4 kmh NW 8.8 mph14.2 kmh 30.12 in1020.0 mb 0.00 in0.0 mm 0.00 in0.0 mm 0.00 in0.0 mm
08:41 AM 41.7°F5.4°C 32.7°F0.4°C 70% 2.6 mph S4.2 kmh S 8.8 mph14.2 kmh 30.12 in1020.0 mb 0.00 in0.0 mm 0.00 in0.0 mm 0.00 in0.0 mm
08:36 AM 41.6°F5.3°C 32.6°F0.3°C 70% 2.2 mph E3.5 kmh E 6.3 mph10.1 kmh 30.11 in1019.6 mb 0.00 in0.0 mm 0.00 in0.0 mm 0.00 in0.0 mm
08:31 AM 41.3°F5.2°C 32.3°F0.2°C 70% 1.9 mph SW3.1 kmh SW 6.3 mph10.1 kmh 30.11 in1019.6 mb 0.00 in0.0 mm 0.00 in0.0 mm 0.00 in0.0 mm
08:26 AM 41.1°F5.1°C 32.8°F0.4°C 72% 2.0 mph S3.2 kmh S 5.0 mph8.0 kmh 30.11 in1019.6 mb 0.00 in0.0 mm 0.00 in0.0 mm 0.00 in0.0 mm
08:21 AM 40.8°F4.9°C 32.2°F0.1°C 71% 1.8 mph WNW2.9 kmh WNW 3.8 mph6.1 kmh 30.11 in1019.6 mb 0.00 in0.0 mm 0.00 in0.0 mm 0.00 in0.0 mm
08:16 AM 40.8°F4.9°C 31.9°F-0.1°C 70% 1.5 mph W2.4 kmh W 4.0 mph6.4 kmh 30.10 in1019.3 mb 0.00 in0.0 mm 0.00 in0.0 mm 0.00 in0.0 mm
08:10 AM 40.8°F4.9°C 32.2°F0.1°C 71% 1.4 mph SW2.3 kmh SW 5.0 mph8.0 kmh 30.10 in1019.3 mb 0.00 in0.0 mm 0.00 in0.0 mm 0.00 in0.0 mm
08:05 AM 40.9°F4.9°C 32.3°F0.2°C 71% 1.7 mph E2.7 kmh E 6.3 mph10.1 kmh 30.09 in1019.0 mb 0.00 in0.0 mm 0.00 in0.0 mm 0.00 in0.0 mm
08:00 AM 41.0°F5.0°C 32.0°F0.0°C 70% 2.2 mph SW3.5 kmh SW 6.3 mph10.1 kmh 30.09 in1019.0 mb 0.00 in0.0 mm 0.00 in0.0 mm 0.00 in0.0 mm
07:55 AM 40.9°F4.9°C 32.3°F0.2°C 71% 2.8 mph SW4.5 kmh SW 3.8 mph6.1 kmh 30.09 in1019.0 mb 0.00 in0.0 mm 0.00 in0.0 mm 0.00 in0.0 mm
07:50 AM 41.1°F5.1°C 33.2°F0.7°C 73% 1.4 mph SW2.3 kmh SW 3.0 mph4.8 kmh 30.09 in1019.0 mb 0.00 in0.0 mm 0.00 in0.0 mm 0.00 in0.0 mm
07:45 AM 41.2°F5.1°C 33.6°F0.9°C 74% 1.3 mph SSW2.1 kmh SSW 3.8 mph6.1 kmh 30.09 in1019.0 mb 0.00 in0.0 mm 0.00 in0.0 mm 0.00 in0.0 mm
07:40 AM 41.2°F5.1°C 33.3°F0.7°C 73% 1.3 mph WSW2.1 kmh WSW 3.8 mph6.1 kmh 30.09 in1019.0 mb 0.00 in0.0 mm 0.00 in0.0 mm 0.00 in0.0 mm
07:35 AM 41.2°F5.1°C 33.6°F0.9°C 74% 1.3 mph WSW2.1 kmh WSW 1.3 mph2.1 kmh 30.09 in1019.0 mb 0.00 in0.0 mm 0.00 in0.0 mm 0.00 in0.0 mm
07:30 AM 41.4°F5.2°C 33.8°F1.0°C 74% Calm Calm 2.0 mph3.2 kmh 30.08 in1018.6 mb 0.00 in0.0 mm 0.00 in0.0 mm 0.00 in0.0 mm
07:25 AM 41.6°F5.3°C 33.0°F0.6°C 71% Calm Calm 2.0 mph3.2 kmh 30.08 in1018.6 mb 0.00 in0.0 mm 0.00 in0.0 mm 0.00 in0.0 mm
07:20 AM 41.8°F5.4°C 33.2°F0.7°C 71% 1.3 mph WSW2.1 kmh WSW 9.0 mph14.5 kmh 30.08 in1018.6 mb 0.00 in0.0 mm 0.00 in0.0 mm 0.00 in0.0 mm
07:15 AM 42.0°F5.6°C 33.0°F0.6°C 70% 1.5 mph W2.4 kmh W 9.0 mph14.5 kmh 30.07 in1018.3 mb 0.00 in0.0 mm 0.00 in0.0 mm 0.00 in0.0 mm
07:10 AM 42.1°F5.6°C 33.1°F0.6°C 70% Calm Calm 11.3 mph18.2 kmh 30.07 in1018.3 mb 0.00 in0.0 mm 0.00 in0.0 mm 0.00 in0.0 mm
07:05 AM 42.1°F5.6°C 32.7°F0.4°C 69% 1.5 mph NW2.4 kmh NW 11.3 mph18.2 kmh 30.07 in1018.3 mb 0.00 in0.0 mm 0.00 in0.0 mm 0.00 in0.0 mm
07:00 AM 42.0°F5.6°C 33.7°F0.9°C 72% 1.3 mph E2.1 kmh E 5.0 mph8.0 kmh 30.07 in1018.3 mb 0.00 in0.0 mm 0.00 in0.0 mm 0.00 in0.0 mm
06:55 AM 42.2°F5.7°C 34.2°F1.2°C 73% 1.5 mph WSW2.4 kmh WSW 5.0 mph8.0 kmh 30.07 in1018.3 mb 0.00 in0.0 mm 0.00 in0.0 mm 0.00 in0.0 mm
06:50 AM 42.2°F5.7°C 33.2°F0.7°C 70% 1.8 mph WSW2.9 kmh WSW 6.3 mph10.1 kmh 30.07 in1018.3 mb 0.00 in0.0 mm 0.00 in0.0 mm 0.00 in0.0 mm
06:45 AM 42.2°F5.7°C 33.2°F0.7°C 70% 2.8 mph N4.5 kmh N 6.3 mph10.1 kmh 30.07 in1018.3 mb 0.00 in0.0 mm 0.00 in0.0 mm 0.00 in0.0 mm
06:40 AM 42.2°F5.7°C 33.2°F0.7°C 70% 2.0 mph N3.2 kmh N 5.0 mph8.0 kmh 30.07 in1018.3 mb 0.00 in0.0 mm 0.00 in0.0 mm 0.00 in0.0 mm
06:35 AM 42.2°F5.7°C 33.9°F1.1°C 72% 1.3 mph NW2.1 kmh NW 3.8 mph6.1 kmh 30.07 in1018.3 mb 0.00 in0.0 mm 0.00 in0.0 mm 0.00 in0.0 mm
06:30 AM 42.2°F5.7°C 33.2°F0.7°C 70% 2.6 mph N4.2 kmh N 3.8 mph6.1 kmh 30.07 in1018.3 mb 0.00 in0.0 mm 0.00 in0.0 mm 0.00 in0.0 mm
06:25 AM 42.3°F5.7°C 34.3°F1.3°C 73% 1.6 mph W2.6 kmh W 3.0 mph4.8 kmh 30.07 in1018.3 mb 0.00 in0.0 mm 0.00 in0.0 mm 0.00 in0.0 mm
06:20 AM 42.3°F5.7°C 33.6°F0.9°C 71% 1.3 mph NW2.1 kmh NW 3.0 mph4.8 kmh 30.07 in1018.3 mb 0.00 in0.0 mm 0.00 in0.0 mm 0.00 in0.0 mm
06:15 AM 42.3°F5.7°C 34.0°F1.1°C 72% 1.3 mph SW2.1 kmh SW 4.0 mph6.4 kmh 30.06 in1017.9 mb 0.00 in0.0 mm 0.00 in0.0 mm 0.00 in0.0 mm
06:10 AM 42.3°F5.7°C 34.0°F1.1°C 72% 2.2 mph SW3.5 kmh SW 4.0 mph6.4 kmh 30.06 in1017.9 mb 0.00 in0.0 mm 0.00 in0.0 mm 0.00 in0.0 mm
06:05 AM 42.3°F5.7°C 33.6°F0.9°C 71% 1.3 mph W2.1 kmh W 6.3 mph10.1 kmh 30.06 in1017.9 mb 0.00 in0.0 mm 0.00 in0.0 mm 0.00 in0.0 mm
06:00 AM 42.3°F5.7°C 33.6°F0.9°C 71% 1.4 mph W2.3 kmh W 6.3 mph10.1 kmh 30.06 in1017.9 mb 0.00 in0.0 mm 0.00 in0.0 mm 0.00 in0.0 mm
05:55 AM 42.3°F5.7°C 33.3°F0.7°C 70% 1.9 mph SW3.1 kmh SW 5.0 mph8.0 kmh 30.06 in1017.9 mb 0.00 in0.0 mm 0.00 in0.0 mm 0.00 in0.0 mm
05:50 AM 42.3°F5.7°C 33.6°F0.9°C 71% 2.1 mph SSW3.4 kmh SSW 5.0 mph8.0 kmh 30.06 in1017.9 mb 0.00 in0.0 mm 0.00 in0.0 mm 0.00 in0.0 mm
05:45 AM 42.3°F5.7°C 34.3°F1.3°C 73% 1.3 mph W2.1 kmh W 5.0 mph8.0 kmh 30.05 in1017.6 mb 0.00 in0.0 mm 0.00 in0.0 mm 0.00 in0.0 mm
05:40 AM 42.2°F5.7°C 34.2°F1.2°C 73% 1.3 mph WSW2.1 kmh WSW 5.0 mph8.0 kmh 30.05 in1017.6 mb 0.00 in0.0 mm 0.00 in0.0 mm 0.00 in0.0 mm
05:35 AM 42.2°F5.7°C 35.2°F1.8°C 76% 1.3 mph W2.1 kmh W 3.0 mph4.8 kmh 30.05 in1017.6 mb 0.00 in0.0 mm 0.00 in0.0 mm 0.00 in0.0 mm
05:30 AM 42.2°F5.7°C 34.6°F1.4°C 74% 1.8 mph SSW2.9 kmh SSW 4.0 mph6.4 kmh 30.05 in1017.6 mb 0.00 in0.0 mm 0.00 in0.0 mm 0.00 in0.0 mm
05:25 AM 42.3°F5.7°C 35.0°F1.7°C 75% 1.3 mph SW2.1 kmh SW 4.0 mph6.4 kmh 30.05 in1017.6 mb 0.00 in0.0 mm 0.00 in0.0 mm 0.00 in0.0 mm
05:20 AM 42.2°F5.7°C 34.9°F1.6°C 75% 1.5 mph SW2.4 kmh SW 5.0 mph8.0 kmh 30.03 in1016.9 mb 0.00 in0.0 mm 0.00 in0.0 mm 0.00 in0.0 mm
05:15 AM 42.2°F5.7°C 34.9°F1.6°C 75% 1.3 mph WSW2.1 kmh WSW 5.0 mph8.0 kmh 30.03 in1016.9 mb 0.00 in0.0 mm 0.00 in0.0 mm 0.00 in0.0 mm
05:10 AM 42.2°F5.7°C 35.6°F2.0°C 77% 1.8 mph SW2.9 kmh SW 3.8 mph6.1 kmh 30.03 in1016.9 mb 0.00 in0.0 mm 0.00 in0.0 mm 0.00 in0.0 mm
05:05 AM 42.2°F5.7°C 35.6°F2.0°C 77% 1.6 mph SW2.6 kmh SW 2.5 mph4.0 kmh 30.03 in1016.9 mb 0.00 in0.0 mm 0.00 in0.0 mm 0.00 in0.0 mm
05:00 AM 42.2°F5.7°C 35.9°F2.2°C 78% 1.3 mph W2.1 kmh W 2.0 mph3.2 kmh 30.03 in1016.9 mb 0.00 in0.0 mm 0.00 in0.0 mm 0.00 in0.0 mm
04:55 AM 42.2°F5.7°C 35.9°F2.2°C 78% 1.3 mph W2.1 kmh W 2.0 mph3.2 kmh 30.03 in1016.9 mb 0.00 in0.0 mm 0.00 in0.0 mm 0.00 in0.0 mm
04:50 AM 42.2°F5.7°C 35.9°F2.2°C 78% 1.3 mph S2.1 kmh S 2.5 mph4.0 kmh 30.03 in1016.9 mb 0.00 in0.0 mm 0.00 in0.0 mm 0.00 in0.0 mm
04:45 AM 42.2°F5.7°C 36.2°F2.3°C 79% 1.5 mph SSW2.4 kmh SSW 2.5 mph4.0 kmh 30.03 in1016.9 mb 0.00 in0.0 mm 0.00 in0.0 mm 0.00 in0.0 mm
04:40 AM 42.2°F5.7°C 36.2°F2.3°C 79% 1.3 mph WSW2.1 kmh WSW 2.5 mph4.0 kmh 30.02 in1016.6 mb 0.00 in0.0 mm 0.00 in0.0 mm 0.00 in0.0 mm
04:35 AM 42.3°F5.7°C 36.3°F2.4°C 79% 1.3 mph WSW2.1 kmh WSW 3.0 mph4.8 kmh 30.02 in1016.6 mb 0.00 in0.0 mm 0.00 in0.0 mm 0.00 in0.0 mm
04:30 AM 42.3°F5.7°C 36.6°F2.6°C 80% 1.3 mph SW2.1 kmh SW 4.0 mph6.4 kmh 30.02 in1016.6 mb 0.00 in0.0 mm 0.00 in0.0 mm 0.00 in0.0 mm
04:25 AM 42.3°F5.7°C 36.6°F2.6°C 80% 1.3 mph WSW2.1 kmh WSW 4.0 mph6.4 kmh 30.03 in1016.9 mb 0.00 in0.0 mm 0.00 in0.0 mm 0.00 in0.0 mm
04:20 AM 42.3°F5.7°C 36.6°F2.6°C 80% 1.8 mph SW2.9 kmh SW 5.0 mph8.0 kmh 30.02 in1016.6 mb 0.00 in0.0 mm 0.00 in0.0 mm 0.00 in0.0 mm
04:15 AM 42.3°F5.7°C 36.6°F2.6°C 80% 1.8 mph WSW2.9 kmh WSW 5.0 mph8.0 kmh 30.02 in1016.6 mb 0.00 in0.0 mm 0.00 in0.0 mm 0.00 in0.0 mm
04:10 AM 42.2°F5.7°C 36.8°F2.7°C 81% 1.3 mph WSW2.1 kmh WSW 4.0 mph6.4 kmh 30.03 in1016.9 mb 0.00 in0.0 mm 0.00 in0.0 mm 0.00 in0.0 mm
04:05 AM 42.3°F5.7°C 36.6°F2.6°C 80% 1.3 mph SW2.1 kmh SW 5.0 mph8.0 kmh 30.03 in1016.9 mb 0.00 in0.0 mm 0.00 in0.0 mm 0.00 in0.0 mm
04:00 AM 42.3°F5.7°C 36.9°F2.7°C 81% 1.6 mph W2.6 kmh W 5.0 mph8.0 kmh 30.03 in1016.9 mb 0.00 in0.0 mm 0.00 in0.0 mm 0.00 in0.0 mm
03:55 AM 42.4°F5.8°C 37.3°F2.9°C 82% 1.6 mph ESE2.6 kmh ESE 7.5 mph12.1 kmh 30.03 in1016.9 mb 0.00 in0.0 mm 0.00 in0.0 mm 0.00 in0.0 mm
03:50 AM 42.4°F5.8°C 37.0°F2.8°C 81% 2.0 mph WSW3.2 kmh WSW 7.5 mph12.1 kmh 30.03 in1016.9 mb 0.00 in0.0 mm 0.00 in0.0 mm 0.00 in0.0 mm
03:45 AM 42.5°F5.8°C 37.1°F2.8°C 81% 1.9 mph SSW3.1 kmh SSW 3.8 mph6.1 kmh 30.02 in1016.6 mb 0.00 in0.0 mm 0.00 in0.0 mm 0.00 in0.0 mm
03:40 AM 42.5°F5.8°C 37.4°F3.0°C 82% 1.3 mph W2.1 kmh W 10.0 mph16.1 kmh 30.02 in1016.6 mb 0.00 in0.0 mm 0.00 in0.0 mm 0.00 in0.0 mm
03:35 AM 42.5°F5.8°C 37.1°F2.8°C 81% 1.3 mph SW2.1 kmh SW 10.0 mph16.1 kmh 30.02 in1016.6 mb 0.00 in0.0 mm 0.00 in0.0 mm 0.00 in0.0 mm
03:30 AM 42.6°F5.9°C 36.6°F2.6°C 79% 1.8 mph WSW2.9 kmh WSW 11.3 mph18.2 kmh 30.02 in1016.6 mb 0.00 in0.0 mm 0.00 in0.0 mm 0.00 in0.0 mm
03:25 AM 42.6°F5.9°C 36.6°F2.6°C 79% 1.4 mph WSW2.3 kmh WSW 11.3 mph18.2 kmh 30.02 in1016.6 mb 0.00 in0.0 mm 0.00 in0.0 mm 0.00 in0.0 mm
03:20 AM 42.7°F5.9°C 36.4°F2.4°C 78% 1.5 mph SW2.4 kmh SW 10.0 mph16.1 kmh 30.02 in1016.6 mb 0.00 in0.0 mm 0.00 in0.0 mm 0.00 in0.0 mm
03:15 AM 42.6°F5.9°C 36.6°F2.6°C 79% 1.6 mph WSW2.6 kmh WSW 12.5 mph20.1 kmh 30.02 in1016.6 mb 0.00 in0.0 mm 0.00 in0.0 mm 0.00 in0.0 mm
03:10 AM 42.5°F5.8°C 37.7°F3.2°C 83% 4.7 mph WSW7.6 kmh WSW 12.5 mph20.1 kmh 30.02 in1016.6 mb 0.00 in0.0 mm 0.00 in0.0 mm 0.00 in0.0 mm
03:05 AM 42.6°F5.9°C 37.5°F3.1°C 82% 1.7 mph WSW2.7 kmh WSW 4.0 mph6.4 kmh 30.02 in1016.6 mb 0.00 in0.0 mm 0.00 in0.0 mm 0.00 in0.0 mm
02:59 AM 42.7°F5.9°C 37.9°F3.3°C 83% 1.3 mph W2.1 kmh W 4.0 mph6.4 kmh 30.02 in1016.6 mb 0.00 in0.0 mm 0.00 in0.0 mm 0.00 in0.0 mm
02:55 AM 42.7°F5.9°C 37.6°F3.1°C 82% 2.1 mph SW3.4 kmh SW 6.3 mph10.1 kmh 30.02 in1016.6 mb 0.00 in0.0 mm 0.00 in0.0 mm 0.00 in0.0 mm
02:49 AM 42.7°F5.9°C 37.3°F2.9°C 81% 1.6 mph SW2.6 kmh SW 6.3 mph10.1 kmh 30.01 in1016.3 mb 0.00 in0.0 mm 0.00 in0.0 mm 0.00 in0.0 mm
02:44 AM 42.8°F6.0°C 37.4°F3.0°C 81% 1.6 mph SW2.6 kmh SW 6.3 mph10.1 kmh 30.01 in1016.3 mb 0.00 in0.0 mm 0.00 in0.0 mm 0.00 in0.0 mm
02:39 AM 42.9°F6.1°C 37.2°F2.9°C 80% 1.9 mph WSW3.1 kmh WSW 6.3 mph10.1 kmh 30.00 in1015.9 mb 0.00 in0.0 mm 0.00 in0.0 mm 0.00 in0.0 mm
02:34 AM 42.9°F6.1°C 37.2°F2.9°C 80% 3.8 mph SW6.1 kmh SW 7.5 mph12.1 kmh 30.01 in1016.3 mb 0.00 in0.0 mm 0.00 in0.0 mm 0.00 in0.0 mm
02:29 AM 43.1°F6.2°C 37.4°F3.0°C 80% 2.9 mph SW4.7 kmh SW 7.5 mph12.1 kmh 30.00 in1015.9 mb 0.00 in0.0 mm 0.00 in0.0 mm 0.00 in0.0 mm
02:24 AM 43.3°F6.3°C 38.5°F3.6°C 83% 1.3 mph SW2.1 kmh SW 5.0 mph8.0 kmh 30.00 in1015.9 mb 0.00 in0.0 mm 0.00 in0.0 mm 0.00 in0.0 mm
02:19 AM 43.3°F6.3°C 37.9°F3.3°C 81% 1.3 mph W2.1 kmh W 5.0 mph8.0 kmh 30.00 in1015.9 mb 0.00 in0.0 mm 0.00 in0.0 mm 0.00 in0.0 mm
02:14 AM 43.5°F6.4°C 37.8°F3.2°C 80% 1.4 mph SW2.3 kmh SW 6.3 mph10.1 kmh 30.00 in1015.9 mb 0.00 in0.0 mm 0.00 in0.0 mm 0.00 in0.0 mm
02:09 AM 43.9°F6.6°C 37.8°F3.2°C 79% 3.4 mph WSW5.5 kmh WSW 6.3 mph10.1 kmh 30.00 in1015.9 mb 0.00 in0.0 mm 0.00 in0.0 mm 0.00 in0.0 mm
02:04 AM 44.0°F6.7°C 38.6°F3.7°C 81% 1.3 mph WNW2.1 kmh WNW 4.0 mph6.4 kmh 30.00 in1015.9 mb 0.00 in0.0 mm 0.00 in0.0 mm 0.00 in0.0 mm
01:59 AM 44.0°F6.7°C 38.3°F3.5°C 80% 1.7 mph NW2.7 kmh NW 6.0 mph9.7 kmh 30.00 in1015.9 mb 0.00 in0.0 mm 0.00 in0.0 mm 0.00 in0.0 mm
01:54 AM 44.1°F6.7°C 38.3°F3.5°C 80% 2.2 mph WNW3.5 kmh WNW 6.0 mph9.7 kmh 29.99 in1015.6 mb 0.00 in0.0 mm 0.00 in0.0 mm 0.00 in0.0 mm
01:49 AM 44.3°F6.8°C 38.5°F3.6°C 80% 2.4 mph WSW3.9 kmh WSW 7.5 mph12.1 kmh 29.99 in1015.6 mb 0.00 in0.0 mm 0.00 in0.0 mm 0.00 in0.0 mm
01:44 AM 44.5°F6.9°C 38.4°F3.6°C 79% 3.5 mph SW5.6 kmh SW 7.5 mph12.1 kmh 29.99 in1015.6 mb 0.00 in0.0 mm 0.00 in0.0 mm 0.00 in0.0 mm
01:39 AM 44.8°F7.1°C 39.0°F3.9°C 80% 1.9 mph WSW3.1 kmh WSW 8.8 mph14.2 kmh 29.99 in1015.6 mb 0.00 in0.0 mm 0.00 in0.0 mm 0.00 in0.0 mm
01:34 AM 45.1°F7.3°C 38.7°F3.7°C 78% 4.1 mph W6.6 kmh W 8.8 mph14.2 kmh 29.99 in1015.6 mb 0.00 in0.0 mm 0.00 in0.0 mm 0.00 in0.0 mm
01:29 AM 45.3°F7.4°C 39.2°F4.0°C 79% 1.9 mph WSW3.1 kmh WSW 7.5 mph12.1 kmh 29.98 in1015.2 mb 0.00 in0.0 mm 0.00 in0.0 mm 0.00 in0.0 mm
01:24 AM 45.5°F7.5°C 39.4°F4.1°C 79% 2.1 mph WSW3.4 kmh WSW 7.5 mph12.1 kmh 29.98 in1015.2 mb 0.00 in0.0 mm 0.00 in0.0 mm 0.00 in0.0 mm
01:19 AM 45.6°F7.6°C 39.8°F4.3°C 80% 1.3 mph SW2.1 kmh SW 8.8 mph14.2 kmh 29.98 in1015.2 mb 0.00 in0.0 mm 0.00 in0.0 mm 0.00 in0.0 mm
01:14 AM 45.7°F7.6°C 39.6°F4.2°C 79% 3.2 mph WSW5.1 kmh WSW 8.8 mph14.2 kmh 29.97 in1014.9 mb 0.00 in0.0 mm 0.00 in0.0 mm 0.00 in0.0 mm
01:09 AM 45.9°F7.7°C 40.1°F4.5°C 80% 1.8 mph WSW2.9 kmh WSW 5.0 mph8.0 kmh 29.97 in1014.9 mb 0.00 in0.0 mm 0.00 in0.0 mm 0.00 in0.0 mm
01:04 AM 45.9°F7.7°C 40.1°F4.5°C 80% 1.3 mph NE2.1 kmh NE 4.0 mph6.4 kmh 29.95 in1014.2 mb 0.00 in0.0 mm 0.00 in0.0 mm 0.00 in0.0 mm
12:59 AM 45.9°F7.7°C 39.8°F4.3°C 79% 1.3 mph NW2.1 kmh NW 8.0 mph12.9 kmh 29.95 in1014.2 mb 0.00 in0.0 mm 0.00 in0.0 mm 0.00 in0.0 mm
12:54 AM 46.0°F7.8°C 40.2°F4.6°C 80% 2.6 mph NW4.2 kmh NW 8.0 mph12.9 kmh 29.95 in1014.2 mb 0.00 in0.0 mm 0.00 in0.0 mm 0.00 in0.0 mm
12:49 AM 46.0°F7.8°C 39.9°F4.4°C 79% 2.3 mph SSW3.7 kmh SSW 10.0 mph16.1 kmh 29.95 in1014.2 mb 0.00 in0.0 mm 0.00 in0.0 mm 0.00 in0.0 mm
12:44 AM 46.0°F7.8°C 39.9°F4.4°C 79% 3.5 mph WNW5.6 kmh WNW 10.0 mph16.1 kmh 29.95 in1014.2 mb 0.00 in0.0 mm 0.00 in0.0 mm 0.00 in0.0 mm
12:39 AM 46.1°F7.8°C 40.0°F4.4°C 79% 2.4 mph NNW3.9 kmh NNW 7.0 mph11.3 kmh 29.95 in1014.2 mb 0.00 in0.0 mm 0.00 in0.0 mm 0.00 in0.0 mm
12:34 AM 46.1°F7.8°C 40.0°F4.4°C 79% 3.0 mph SW4.8 kmh SW 11.0 mph17.7 kmh 29.94 in1013.9 mb 0.00 in0.0 mm 0.00 in0.0 mm 0.00 in0.0 mm
12:29 AM 46.2°F7.9°C 40.1°F4.5°C 79% 1.8 mph SSW2.9 kmh SSW 15.0 mph24.1 kmh 29.94 in1013.9 mb 0.00 in0.0 mm 0.00 in0.0 mm 0.00 in0.0 mm
12:24 AM 46.3°F7.9°C 39.9°F4.4°C 78% 2.8 mph WSW4.5 kmh WSW 15.0 mph24.1 kmh 29.94 in1013.9 mb 0.00 in0.0 mm 0.00 in0.0 mm 0.00 in0.0 mm
12:19 AM 46.5°F8.1°C 40.1°F4.5°C 78% 2.5 mph SW4.0 kmh SW 10.0 mph16.1 kmh 29.93 in1013.5 mb 0.00 in0.0 mm 0.00 in0.0 mm 0.00 in0.0 mm
12:14 AM 46.5°F8.1°C 40.4°F4.7°C 79% 2.3 mph SW3.7 kmh SW 12.5 mph20.1 kmh 29.93 in1013.5 mb 0.00 in0.0 mm 0.00 in0.0 mm 0.00 in0.0 mm
12:09 AM 46.6°F8.1°C 40.2°F4.6°C 78% 4.5 mph NW7.2 kmh NW 12.5 mph20.1 kmh 29.92 in1013.2 mb 0.00 in0.0 mm 0.00 in0.0 mm 0.00 in0.0 mm
12:04 AM 46.7°F8.2°C 40.9°F4.9°C 80% 3.3 mph SW5.3 kmh SW 7.5 mph12.1 kmh 29.91 in1012.9 mb 0.00 in0.0 mm 0.00 in0.0 mm 0.00 in0.0 mm